FYGA4: White River At Fayetteville, AR

                                SHEF ID:       FYGA4     White River near Fayetteville, A
STATION TYPE: Stream Gauge

PRECIP STAGE RIV-FLOW WTR-TEMP DIS-OXY PH CONDUCT BAT-LOAD
in ft cfs F mg/l su umho/cm volt
Ccp-Rev Ccp-Rev Ccp-Rev Ccp-Rev Ccp-Rev Ccp-Rev Ccp-Rev Ccp-Rev
(America/Chicago)
08/07 00:00 0.00 0.81 3 86.58 4.23 7.62 289 12.73
08/07 01:00 0.00 0.82 3 85.75 3.93 7.59 289 12.65
08/07 02:00 0.00 0.81 3 84.94 3.69 7.56 290 12.65
08/07 03:00 0.00 0.81 3 84.15 3.49 7.57 290 12.65
08/07 04:00 0.00 0.81 3 83.14 3.39 7.56 290 12.57
08/07 05:00 0.00 0.81 3 82.38 3.27 7.54 291 12.57
08/07 06:00 0.08 0.81 3 81.81 3.09 7.51 291 12.57
08/07 07:00 0.29 0.81 3 81.16 3.04 7.50 291 12.57
08/07 08:00 0.02 0.80 2 80.58 3.22 7.51 291 12.57
08/07 09:00 0.11 0.80 2 80.28 3.22 7.49 292 12.89
08/07 10:00 0.00 0.80 2 80.56 3.94 7.56 292 13.29
08/07 11:00 0.00 0.79 2 81.45 4.78 7.62 291 13.44
08/07 12:00 0.04 0.79 2 83.73 7.38 7.90 287 13.84
08/07 13:00 0.00 0.79 2 86.61 8.74 8.06 285 13.37
08/07 14:00 0.00 0.79 2 90.66 9.71 8.30 281 13.44
08/07 15:00 0.00 0.79 2 91.96 9.83 8.29 280 13.21
08/07 16:00 0.00 0.79 2 93.83 10.49 8.41 278 13.21
08/07 17:00 0.00 0.78 2 94.41 11.15 8.45 277 13.21
08/07 18:00 0.00 0.78 2 94.01 11.15 8.44 276 13.05
08/07 19:00 0.00 0.78 2 92.01 11.37 8.43 276 12.89
08/07 20:00 0.00 0.78 2 89.64 9.61 8.31 279 12.89
08/07 21:00 0.00 0.78 2 88.23 7.60 8.03 283 12.81
08/07 22:00 0.00 0.79 2 86.97 6.01 7.82 286 12.81
08/07 23:00 ---- ---- ---- ---- ---- ---- ---- ----
Data processed at Thu 08Aug2024 04:10 GMT

Parsing this webpage?

Checkout our new Data API! CWMSDataAPI (CDA)

Timeseries IDs (TSIDs)

TSIDs used from left to right in the data table
FAYE.Precip-Inc.Total.1Hour.1Hour.Ccp-Rev
FAYE.Stage.Inst.1Hour.0.Ccp-Rev
FAYE.Flow.Inst.1Hour.0.Ccp-Rev
FAYE.Temp-Water.Inst.1Hour.0.Ccp-Rev
FAYE.Conc-DO.Inst.1Hour.0.Ccp-Rev
FAYE.pH.Inst.1Hour.0.Ccp-Rev
FAYE.Cond-Water.Inst.1Hour.0.Ccp-Rev
FAYE.Volt-Battery Load.Inst.1Hour.0.Ccp-Rev

                            

All information presented herein is the property of the government of the United States of America and may be revised or deleted at any time without prior notice. Dissemination of this information without the expressed written consent of the Public Affairs Office, Tulsa District U.S. Army Corps of Engineers is strictly prohibited. These data are gathered electronically and, as presented, have NOT undergone any form of quality control. These data are NOT guaranteed to be valid or correct.